createdAt,value
2023-04-02T00:00:30.577Z,98725.63
2023-04-02T00:05:58.765Z,98729.34
2023-04-02T00:11:00.731Z,98730.09
2023-04-02T00:16:04.248Z,98728.34
2023-04-02T00:21:39.884Z,98728.94
2023-04-02T00:26:48.625Z,98730.53
2023-04-02T00:31:53.697Z,98730.41
2023-04-02T00:36:55.789Z,98733.09
2023-04-02T00:41:58.637Z,98734.81
2023-04-02T00:47:14.411Z,98736.66
2023-04-02T00:52:17.384Z,98741.78
2023-04-02T00:57:22.751Z,98754.69
2023-04-02T01:02:32.342Z,98749.44
2023-04-02T01:07:43.754Z,98747.03
2023-04-02T01:13:02.085Z,98743.44
2023-04-02T01:18:26.840Z,98755.53
2023-04-02T01:23:36.238Z,98748.50
2023-04-02T01:29:02.691Z,98764.31
2023-04-02T01:34:06.139Z,98758.06
2023-04-02T01:39:17.831Z,98755.41
2023-04-02T01:44:30.884Z,98750.91
2023-04-02T01:49:32.607Z,98746.75
2023-04-02T01:54:34.598Z,98742.19
2023-04-02T01:59:36.483Z,98751.72
2023-04-02T02:04:38.742Z,98746.13
2023-04-02T02:09:40.638Z,98734.50
2023-04-02T02:14:51.651Z,98747.25
2023-04-02T02:19:55.660Z,98761.47
2023-04-02T02:24:58.989Z,98741.63
2023-04-02T02:30:06.531Z,98756.31
2023-04-02T02:35:12.698Z,98756.41
2023-04-02T02:40:26.894Z,98760.84
2023-04-02T02:45:31.458Z,98765.09
2023-04-02T02:50:33.327Z,98747.44
2023-04-02T02:55:36.208Z,98762.50
2023-04-02T03:00:38.326Z,98758.75
2023-04-02T03:05:40.272Z,98759.56
2023-04-02T03:11:00.119Z,98764.78
2023-04-02T03:16:08.065Z,98763.03
2023-04-02T03:21:22.000Z,98761.41
2023-04-02T03:27:11.322Z,98769.03
2023-04-02T03:32:28.125Z,98782.16
2023-04-02T03:37:41.699Z,98779.25
2023-04-02T03:43:00.114Z,98776.34
2023-04-02T03:48:20.373Z,98782.50
2023-04-02T03:53:26.017Z,98781.56
2023-04-02T03:58:48.535Z,98773.59
2023-04-02T04:03:51.740Z,98771.56
2023-04-02T04:08:56.261Z,98772.50
2023-04-02T04:14:14.056Z,98768.94
2023-04-02T04:19:44.649Z,98781.34
2023-04-02T04:24:47.278Z,98776.22
2023-04-02T04:29:54.135Z,98790.53
2023-04-02T04:34:58.474Z,98796.25
2023-04-02T04:40:09.449Z,98800.22
2023-04-02T04:45:36.264Z,98802.66
2023-04-02T04:50:42.032Z,98800.75
2023-04-02T04:55:44.352Z,98804.22
2023-04-02T05:01:07.981Z,98814.59
2023-04-02T05:06:15.272Z,98806.50
2023-04-02T05:11:32.192Z,98809.81
2023-04-02T05:16:40.342Z,98809.44
2023-04-02T05:22:12.926Z,98813.47
2023-04-02T05:27:20.856Z,98820.22
2023-04-02T05:32:29.018Z,98816.06
2023-04-02T05:37:31.072Z,98822.53
2023-04-02T05:42:34.858Z,98828.69
2023-04-02T05:47:36.691Z,98824.81
2023-04-02T05:52:42.653Z,98830.59
2023-04-02T05:58:13.571Z,98839.59
2023-04-02T06:03:19.738Z,98840.59
2023-04-02T06:08:32.998Z,98845.72
2023-04-02T06:13:34.901Z,98841.91
2023-04-02T06:18:36.864Z,98844.63
2023-04-02T06:23:43.170Z,98835.69
2023-04-02T06:29:00.488Z,98841.91
2023-04-02T06:34:03.806Z,98835.34
2023-04-02T06:39:11.367Z,98843.72
2023-04-02T06:44:17.758Z,98839.38
2023-04-02T06:49:21.886Z,98833.06
2023-04-02T06:54:23.769Z,98841.59
2023-04-02T06:59:25.827Z,98842.28
2023-04-02T07:04:27.779Z,98850.41
2023-04-02T07:09:29.864Z,98855.50
2023-04-02T07:14:31.809Z,98851.59
2023-04-02T07:19:33.685Z,98858.66
2023-04-02T07:24:35.544Z,98855.31
2023-04-02T07:29:37.565Z,98864.47
2023-04-02T07:34:40.368Z,98873.94
2023-04-02T07:39:42.393Z,98872.44
2023-04-02T07:44:44.417Z,98869.78
2023-04-02T07:49:46.271Z,98876.09
2023-04-02T07:54:48.156Z,98877.16
2023-04-02T07:59:49.993Z,98888.34
2023-04-02T08:04:51.857Z,98890.56
2023-04-02T08:09:53.781Z,98881.66
2023-04-02T08:14:55.702Z,98883.84
2023-04-02T08:20:00.677Z,98887.44
2023-04-02T08:25:02.623Z,98881.56
2023-04-02T08:30:05.535Z,98878.69
2023-04-02T08:35:07.973Z,98881.22
2023-04-02T08:40:21.025Z,98883.31
2023-04-02T08:45:25.572Z,98875.41
2023-04-02T08:50:35.341Z,98879.41
2023-04-02T08:55:40.817Z,98877.44
2023-04-02T09:00:44.352Z,98880.84
2023-04-02T09:05:46.476Z,98876.44
2023-04-02T09:10:58.896Z,98876.75
2023-04-02T09:16:10.807Z,98877.22
2023-04-02T09:21:21.706Z,98888.31
2023-04-02T09:26:27.646Z,98884.31
2023-04-02T09:31:37.974Z,98885.47
2023-04-02T09:36:40.028Z,98885.25
2023-04-02T09:41:42.885Z,98888.31
2023-04-02T09:46:56.115Z,98899.28
2023-04-02T09:52:18.045Z,98905.81
2023-04-02T09:57:22.036Z,98906.66
2023-04-02T10:02:25.099Z,98895.34
2023-04-02T10:07:34.373Z,98904.19
2023-04-02T10:12:37.690Z,98903.53
2023-04-02T10:17:39.701Z,98896.72
2023-04-02T10:22:41.654Z,98905.22
2023-04-02T10:28:02.179Z,98907.50
2023-04-02T10:33:08.695Z,98905.88
2023-04-02T10:38:35.344Z,98901.81
2023-04-02T10:43:57.822Z,98893.34
2023-04-02T10:49:24.197Z,98899.44
2023-04-02T10:54:40.692Z,98887.09
2023-04-02T10:59:49.136Z,98888.38
2023-04-02T11:04:51.083Z,98884.47
2023-04-02T11:09:54.978Z,98890.94
2023-04-02T11:14:56.830Z,98884.38
2023-04-02T11:20:37.073Z,98876.19
2023-04-02T11:25:39.097Z,98885.13
2023-04-02T11:30:40.991Z,98882.59
2023-04-02T11:35:43.003Z,98883.81
2023-04-02T11:40:50.911Z,98881.34
2023-04-02T11:45:53.716Z,98894.78
2023-04-02T11:50:55.758Z,98895.22
2023-04-02T11:55:57.596Z,98894.56
2023-04-02T12:01:24.275Z,98891.97
2023-04-02T12:06:34.754Z,98882.28
2023-04-02T12:11:37.939Z,98892.00
2023-04-02T12:16:39.776Z,98886.91
2023-04-02T12:21:41.646Z,98887.22
2023-04-02T12:26:43.690Z,98886.66
2023-04-02T12:31:48.316Z,98898.25
2023-04-02T12:37:04.184Z,98901.34
2023-04-02T12:42:06.173Z,98908.63
2023-04-02T12:47:08.062Z,98903.91
2023-04-02T12:52:14.013Z,98912.91
2023-04-02T12:57:25.837Z,98921.28
2023-04-02T13:02:29.663Z,98910.06
2023-04-02T13:07:32.813Z,98909.28
2023-04-02T13:12:34.664Z,98911.53
2023-04-02T13:17:44.753Z,98907.06
2023-04-02T13:22:48.310Z,98908.22
2023-04-02T13:27:50.146Z,98919.34
2023-04-02T13:33:00.959Z,98923.38
2023-04-02T13:38:02.983Z,98914.81
2023-04-02T13:43:05.410Z,98907.72
2023-04-02T13:48:10.198Z,98893.88
2023-04-02T13:53:24.930Z,98901.88
2023-04-02T13:58:26.791Z,98903.53
2023-04-02T14:03:28.612Z,98903.19
2023-04-02T14:08:47.278Z,98907.78
2023-04-02T14:14:07.405Z,98907.47
2023-04-02T14:19:38.474Z,98908.75
2023-04-02T14:24:54.222Z,98908.34
2023-04-02T14:30:04.609Z,98905.50
2023-04-02T14:35:26.960Z,98918.34
2023-04-02T14:40:34.854Z,98906.34
2023-04-02T14:46:00.997Z,98903.50
2023-04-02T14:51:30.712Z,98899.44
2023-04-02T14:56:36.869Z,98906.22
2023-04-02T15:01:40.970Z,98908.59
2023-04-02T15:06:50.567Z,98908.44
2023-04-02T15:11:54.442Z,98904.16
2023-04-02T15:16:56.428Z,98906.41
2023-04-02T15:22:05.296Z,98904.47
2023-04-02T15:27:25.979Z,98912.19
2023-04-02T15:32:34.392Z,98910.84
2023-04-02T15:37:41.606Z,98914.97
2023-04-02T15:42:47.276Z,98911.03
2023-04-02T15:48:07.841Z,98923.66
2023-04-02T15:53:33.786Z,98926.16
2023-04-02T15:58:38.870Z,98930.25
2023-04-02T16:03:47.941Z,98926.09
2023-04-02T16:08:54.594Z,98935.19
2023-04-02T16:14:15.668Z,98940.31
2023-04-02T16:19:20.218Z,98943.38
2023-04-02T16:24:23.125Z,98951.25
2023-04-02T16:29:47.550Z,98956.34
2023-04-02T16:35:41.920Z,98960.13
2023-04-02T16:41:10.169Z,98967.66
2023-04-02T16:46:40.664Z,98971.06
2023-04-02T16:52:02.031Z,98973.19
2023-04-02T16:57:13.342Z,98972.56
2023-04-02T17:02:36.515Z,98984.88
2023-04-02T17:08:04.536Z,98981.00
2023-04-02T17:13:24.411Z,98987.09
2023-04-02T17:18:26.378Z,98982.63
2023-04-02T17:23:28.399Z,98990.56
2023-04-02T17:28:33.646Z,98994.00
2023-04-02T17:33:35.525Z,98991.69
2023-04-02T17:38:57.553Z,98999.72
2023-04-02T17:44:24.335Z,98998.75
2023-04-02T17:49:36.868Z,98995.34
2023-04-02T17:54:48.738Z,99000.75
2023-04-02T18:00:10.488Z,99009.81
2023-04-02T18:05:12.318Z,99007.06
2023-04-02T18:10:28.187Z,99009.69
2023-04-02T18:15:42.579Z,99007.72
2023-04-02T18:21:21.399Z,99014.59
2023-04-02T18:26:41.391Z,99011.28
2023-04-02T18:32:19.758Z,99013.00
2023-04-02T18:37:44.714Z,99015.81
2023-04-02T18:43:06.350Z,99020.13
2023-04-02T18:48:24.986Z,99018.53
2023-04-02T18:53:27.241Z,99021.34
2023-04-02T18:58:51.876Z,99025.75
2023-04-02T19:03:57.750Z,99035.41
2023-04-02T19:09:01.529Z,99034.50
2023-04-02T19:14:14.450Z,99036.53
2023-04-02T19:19:27.118Z,99027.31
2023-04-02T19:24:41.395Z,99039.22
2023-04-02T19:30:27.018Z,99041.97
2023-04-02T19:35:32.584Z,99042.09
2023-04-02T19:40:57.024Z,99034.25
2023-04-02T19:45:58.821Z,99037.09
2023-04-02T19:51:00.775Z,99037.22
2023-04-02T19:56:02.743Z,99038.09
2023-04-02T20:01:04.711Z,99050.34
2023-04-02T20:06:06.715Z,99051.16
2023-04-02T20:11:08.472Z,99050.38
2023-04-02T20:16:10.404Z,99048.00
2023-04-02T20:21:12.369Z,99053.94
2023-04-02T20:26:14.374Z,99061.94
2023-04-02T20:31:17.382Z,99059.41
2023-04-02T20:36:19.236Z,99062.22
2023-04-02T20:41:21.169Z,99069.38
2023-04-02T20:46:23.399Z,99070.91
2023-04-02T20:51:25.297Z,99062.38
2023-04-02T20:56:27.227Z,99064.59
2023-04-02T21:01:29.741Z,99071.97
2023-04-02T21:06:33.458Z,99069.34
2023-04-02T21:11:35.965Z,99076.41
2023-04-02T21:16:37.938Z,99078.97
2023-04-02T21:21:40.025Z,99081.03
2023-04-02T21:26:41.955Z,99075.72
2023-04-02T21:31:43.942Z,99071.16
2023-04-02T21:36:47.483Z,99079.88
2023-04-02T21:41:50.513Z,99077.16
2023-04-02T21:46:53.920Z,99073.91
2023-04-02T21:51:56.074Z,99072.53
2023-04-02T21:56:58.030Z,99073.72
2023-04-02T22:02:00.122Z,99080.72
2023-04-02T22:07:02.146Z,99085.16
2023-04-02T22:12:04.194Z,99081.88
2023-04-02T22:17:06.076Z,99088.06
2023-04-02T22:22:08.295Z,99090.97
2023-04-02T22:27:10.316Z,99095.41
2023-04-02T22:32:12.259Z,99094.69
2023-04-02T22:37:14.122Z,99094.69
2023-04-02T22:42:15.968Z,99097.44
2023-04-02T22:47:17.730Z,99096.59
2023-04-02T22:52:19.603Z,99096.72
2023-04-02T22:57:21.594Z,99091.38
2023-04-02T23:02:23.492Z,99095.66
2023-04-02T23:07:25.525Z,99092.16
2023-04-02T23:12:27.443Z,99095.63
2023-04-02T23:17:29.338Z,99094.69
2023-04-02T23:22:31.384Z,99093.13
2023-04-02T23:27:33.465Z,99105.19
2023-04-02T23:32:35.506Z,99102.31
2023-04-02T23:37:37.378Z,99098.69
2023-04-02T23:42:39.314Z,99094.13
2023-04-02T23:47:41.306Z,99092.31
2023-04-02T23:52:43.273Z,99102.69
2023-04-02T23:57:45.196Z,99105.31
